Time;durP1;ratioP1;P1;durP2;ratioP2;P2;SDS_P1;SDS_P2;PMS_P1;PMS_P2;Temp;Humidity;BMP_temperature;BMP_pressure;BME280_temperature;BME280_humidity;BME280_pressure;Samples;Min_cycle;Max_cycle;Signal;HPM_P1;HPM_P2
2022/02/19 00:01:34;;;;;;;0.70;0.60;;;6.80;99.90;;;;;;5032545;28;20551;-74
2022/02/19 00:04:00;;;;;;;0.70;0.50;;;6.80;99.90;;;;;;5040249;28;20421;-74
2022/02/19 00:06:26;;;;;;;0.70;0.50;;;6.80;99.90;;;;;;5052285;28;20400;-74
2022/02/19 00:08:51;;;;;;;0.70;0.50;;;6.80;99.90;;;;;;5043262;28;20430;-74
2022/02/19 00:11:17;;;;;;;0.77;0.67;;;6.70;99.90;;;;;;5031169;28;20196;-74
2022/02/19 00:13:42;;;;;;;0.70;0.50;;;6.70;99.90;;;;;;5032142;28;20206;-74
2022/02/19 00:16:08;;;;;;;0.70;0.50;;;6.70;99.90;;;;;;5032360;28;20255;-74
2022/02/19 00:18:33;;;;;;;0.70;0.50;;;6.70;99.90;;;;;;5031510;28;20201;-74
2022/02/19 00:20:59;;;;;;;0.70;0.50;;;6.60;99.90;;;;;;5032019;28;20188;-74
2022/02/19 00:23:28;;;;;;;0.70;0.50;;;6.60;99.90;;;;;;5032071;28;20168;-74
2022/02/19 00:25:53;;;;;;;0.70;0.50;;;6.60;99.90;;;;;;5031002;28;20172;-74
2022/02/19 00:28:19;;;;;;;0.70;0.50;;;6.60;99.90;;;;;;5030643;28;20938;-74
2022/02/19 00:30:44;;;;;;;0.70;0.50;;;6.60;99.90;;;;;;5032051;28;20200;-74
2022/02/19 00:33:10;;;;;;;0.70;0.50;;;6.60;99.90;;;;;;5048650;28;20170;-74
2022/02/19 00:35:35;;;;;;;0.70;0.50;;;6.50;99.90;;;;;;5047815;28;20174;-74
2022/02/19 00:38:01;;;;;;;1.57;0.80;;;6.60;99.90;;;;;;5035682;28;20191;-74
2022/02/19 00:40:27;;;;;;;0.70;0.50;;;6.50;99.90;;;;;;5035867;28;20853;-74
2022/02/19 00:42:52;;;;;;;0.70;0.50;;;6.50;99.90;;;;;;5035831;28;20175;-74
2022/02/19 00:45:18;;;;;;;0.70;0.47;;;6.50;99.90;;;;;;5035348;28;20261;-73
2022/02/19 00:47:43;;;;;;;0.70;0.50;;;6.50;99.90;;;;;;5036946;28;20194;-75
2022/02/19 00:50:09;;;;;;;0.70;0.50;;;6.50;99.90;;;;;;5034440;28;20176;-75
2022/02/19 00:52:35;;;;;;;0.70;0.50;;;6.50;99.90;;;;;;5034377;28;20175;-73
2022/02/19 00:55:01;;;;;;;0.70;0.50;;;6.50;99.90;;;;;;5033563;28;20699;-74
2022/02/19 00:57:26;;;;;;;0.70;0.50;;;6.50;99.90;;;;;;5035336;28;20407;-75
2022/02/19 00:59:52;;;;;;;0.70;0.50;;;6.50;99.90;;;;;;5035297;28;20199;-73
2022/02/19 01:02:17;;;;;;;0.70;0.50;;;6.50;99.90;;;;;;5034038;28;20325;-74
2022/02/19 01:04:43;;;;;;;0.73;0.63;;;6.50;99.90;;;;;;5034991;28;20191;-74
2022/02/19 01:07:09;;;;;;;0.80;0.60;;;6.50;99.90;;;;;;5036406;28;20187;-74
2022/02/19 01:09:34;;;;;;;0.70;0.50;;;6.50;99.90;;;;;;5038627;28;20183;-74
2022/02/19 01:12:00;;;;;;;0.70;0.50;;;6.60;99.90;;;;;;5035307;28;20738;-75
2022/02/19 01:14:26;;;;;;;0.70;0.60;;;6.60;99.90;;;;;;5033982;28;20175;-75
2022/02/19 01:16:51;;;;;;;0.80;0.60;;;6.60;99.90;;;;;;5034151;28;20175;-75
2022/02/19 01:19:17;;;;;;;0.70;0.50;;;6.70;99.90;;;;;;5025457;28;20230;-74
2022/02/19 01:21:42;;;;;;;0.70;0.50;;;6.70;99.90;;;;;;5014289;28;20226;-75
2022/02/19 01:24:08;;;;;;;0.70;0.50;;;6.80;99.90;;;;;;5015191;28;20365;-75
2022/02/19 01:26:33;;;;;;;0.70;0.50;;;6.80;99.90;;;;;;5026006;28;20243;-74
2022/02/19 01:28:59;;;;;;;0.70;0.50;;;6.80;99.90;;;;;;5029325;28;20190;-74
2022/02/19 01:31:25;;;;;;;0.70;0.50;;;6.90;99.90;;;;;;5034623;28;20226;-74
2022/02/19 01:33:51;;;;;;;0.70;0.50;;;6.90;99.90;;;;;;5034722;28;20434;-74
2022/02/19 01:36:16;;;;;;;0.70;0.50;;;6.90;99.90;;;;;;5034727;28;20783;-75
2022/02/19 01:38:42;;;;;;;0.70;0.50;;;6.90;99.90;;;;;;5034362;28;20195;-74
2022/02/19 01:41:08;;;;;;;0.70;0.50;;;6.90;99.90;;;;;;5034394;28;20183;-74
2022/02/19 01:43:33;;;;;;;0.70;0.50;;;7.00;99.90;;;;;;5029265;28;20187;-74
2022/02/19 01:45:59;;;;;;;0.70;0.50;;;7.00;99.90;;;;;;5034254;28;20193;-74
2022/02/19 01:48:24;;;;;;;0.70;0.50;;;7.00;99.90;;;;;;5015949;28;20223;-74
2022/02/19 01:50:50;;;;;;;0.70;0.50;;;6.90;99.90;;;;;;5034507;28;20202;-74
2022/02/19 01:53:17;;;;;;;0.70;0.50;;;6.90;99.90;;;;;;5034080;28;20198;-74
2022/02/19 01:55:43;;;;;;;0.70;0.50;;;6.90;99.90;;;;;;5033735;28;20330;-74
2022/02/19 01:58:09;;;;;;;0.70;0.50;;;6.90;99.90;;;;;;5033780;28;20433;-74
2022/02/19 02:00:36;;;;;;;0.70;0.47;;;6.80;99.90;;;;;;5031248;28;20196;-74
2022/02/19 02:03:02;;;;;;;0.70;0.50;;;6.50;99.90;;;;;;5038488;28;20433;-74
2022/02/19 02:05:28;;;;;;;2.50;2.40;;;6.40;99.90;;;;;;5033206;28;20430;-72
2022/02/19 02:07:54;;;;;;;0.70;0.43;;;6.30;99.90;;;;;;5043499;28;20187;-72
2022/02/19 02:10:20;;;;;;;0.70;0.50;;;6.10;99.90;;;;;;5038518;28;20278;-72
2022/02/19 02:12:45;;;;;;;0.70;0.50;;;6.00;99.90;;;;;;5034129;28;20999;-72
2022/02/19 02:15:29;;;;;;;0.70;0.40;;;5.90;99.90;;;;;;5031523;28;20176;-72
2022/02/19 02:17:57;;;;;;;0.70;0.50;;;5.90;99.90;;;;;;5038284;28;20541;-71
2022/02/19 02:20:22;;;;;;;1.10;0.73;;;6.00;99.90;;;;;;5034131;28;20462;-71
2022/02/19 02:22:48;;;;;;;0.70;0.40;;;6.00;99.90;;;;;;5033193;28;20793;-71
2022/02/19 02:25:15;;;;;;;0.70;0.50;;;5.90;99.90;;;;;;5028223;28;20184;-73
2022/02/19 02:27:40;;;;;;;0.70;0.50;;;5.80;99.90;;;;;;5031945;28;20171;-71
2022/02/19 02:30:07;;;;;;;0.70;0.50;;;5.80;99.90;;;;;;5032294;28;20414;-73
2022/02/19 02:32:33;;;;;;;0.70;0.50;;;5.70;99.90;;;;;;5042239;28;20186;-73
2022/02/19 02:34:58;;;;;;;0.70;0.50;;;5.60;99.90;;;;;;5030447;28;20434;-73
2022/02/19 02:37:25;;;;;;;0.70;0.50;;;5.50;99.90;;;;;;5033686;28;20210;-73
2022/02/19 02:39:51;;;;;;;0.70;0.50;;;5.50;99.90;;;;;;5031706;28;20209;-72
2022/02/19 02:42:19;;;;;;;0.70;0.50;;;5.50;99.90;;;;;;5021856;28;20537;-71
2022/02/19 02:44:45;;;;;;;0.70;0.40;;;5.60;99.90;;;;;;5013037;28;20824;-71
2022/02/19 02:47:11;;;;;;;0.70;0.50;;;5.60;99.90;;;;;;5032815;28;20851;-71
2022/02/19 02:49:37;;;;;;;0.70;0.50;;;5.70;99.90;;;;;;5032932;28;20402;-71
2022/02/19 02:52:03;;;;;;;7.73;1.00;;;5.70;99.90;;;;;;5031778;28;20446;-71
2022/02/19 02:54:29;;;;;;;0.70;0.50;;;5.80;99.90;;;;;;5030984;28;20481;-72
2022/02/19 02:56:55;;;;;;;0.70;0.50;;;5.90;99.90;;;;;;5032736;28;20849;-71
2022/02/19 02:59:20;;;;;;;0.70;0.43;;;6.00;99.90;;;;;;5032718;28;20825;-72
2022/02/19 03:01:46;;;;;;;0.70;0.50;;;6.00;99.90;;;;;;5032587;28;20227;-71
2022/02/19 03:04:11;;;;;;;0.70;0.50;;;6.10;99.90;;;;;;5032542;28;20214;-71
2022/02/19 03:06:37;;;;;;;0.70;0.50;;;6.20;99.90;;;;;;5031033;28;20577;-71
2022/02/19 03:09:02;;;;;;;0.70;0.50;;;6.30;99.90;;;;;;5027100;28;20275;-71
2022/02/19 03:11:28;;;;;;;0.70;0.50;;;6.30;99.90;;;;;;5033540;28;20242;-73
2022/02/19 03:13:54;;;;;;;0.70;0.50;;;6.40;99.90;;;;;;5036134;28;20306;-73
2022/02/19 03:16:20;;;;;;;0.70;0.50;;;6.40;99.90;;;;;;5034864;28;21045;-73
2022/02/19 03:18:46;;;;;;;0.70;0.50;;;6.40;99.90;;;;;;5034911;28;20249;-73
2022/02/19 03:21:11;;;;;;;0.70;0.50;;;6.50;99.90;;;;;;5034995;28;20469;-73
2022/02/19 03:23:37;;;;;;;0.70;0.50;;;6.50;99.90;;;;;;5056609;28;20206;-73
2022/02/19 03:26:07;;;;;;;0.80;0.70;;;6.50;99.90;;;;;;5026530;28;20188;-73
2022/02/19 03:28:32;;;;;;;0.70;0.50;;;6.50;99.90;;;;;;5021494;28;20171;-73
2022/02/19 03:30:58;;;;;;;0.70;0.50;;;6.50;99.90;;;;;;5036070;28;20804;-73
2022/02/19 03:33:23;;;;;;;0.70;0.50;;;6.50;99.90;;;;;;5015939;28;20194;-73
2022/02/19 03:35:49;;;;;;;0.70;0.50;;;6.50;99.90;;;;;;5014904;28;20184;-73
2022/02/19 03:38:14;;;;;;;0.70;0.50;;;6.50;99.90;;;;;;5015958;28;20200;-73
2022/02/19 03:40:40;;;;;;;0.70;0.50;;;6.60;99.90;;;;;;5037240;28;20211;-73
2022/02/19 03:43:05;;;;;;;0.70;0.50;;;6.50;99.90;;;;;;5048880;28;20178;-72
2022/02/19 03:45:35;;;;;;;0.70;0.50;;;6.50;99.90;;;;;;5039109;28;20637;-72
2022/02/19 03:48:01;;;;;;;0.80;0.70;;;6.50;99.90;;;;;;5031037;28;20551;-72
2022/02/19 03:50:27;;;;;;;0.70;0.50;;;6.50;99.90;;;;;;5033783;28;20430;-73
2022/02/19 03:52:52;;;;;;;0.70;0.50;;;6.50;99.90;;;;;;5034805;28;20441;-73
2022/02/19 03:55:18;;;;;;;0.70;0.60;;;6.50;99.90;;;;;;5040938;28;20185;-71
2022/02/19 03:57:44;;;;;;;0.70;0.50;;;6.50;99.90;;;;;;5029758;28;20222;-71
2022/02/19 04:00:11;;;;;;;3.70;1.93;;;6.50;99.90;;;;;;5026895;28;20457;-71
2022/02/19 04:02:38;;;;;;;0.70;0.60;;;6.50;99.90;;;;;;5030728;28;20172;-73
2022/02/19 04:05:07;;;;;;;0.70;0.50;;;6.50;99.90;;;;;;5031170;28;20417;-72
2022/02/19 04:07:33;;;;;;;0.70;0.50;;;6.50;99.90;;;;;;5034939;28;20410;-72
2022/02/19 04:09:58;;;;;;;1.60;1.50;;;6.50;99.90;;;;;;5035781;28;20406;-72
2022/02/19 04:12:25;;;;;;;0.70;0.50;;;6.50;99.90;;;;;;5045030;28;20662;-71
2022/02/19 04:14:51;;;;;;;0.97;0.80;;;6.50;99.90;;;;;;5054216;28;20175;-72
2022/02/19 04:17:16;;;;;;;0.70;0.50;;;6.50;99.90;;;;;;5038148;28;21068;-71
2022/02/19 04:19:42;;;;;;;0.70;0.50;;;6.50;99.90;;;;;;5035677;28;20194;-71
2022/02/19 04:22:08;;;;;;;0.70;0.50;;;6.50;99.90;;;;;;5035164;28;20197;-72
2022/02/19 04:24:34;;;;;;;0.70;0.50;;;6.50;99.90;;;;;;5035196;28;20546;-71
2022/02/19 04:26:59;;;;;;;0.70;0.50;;;6.50;99.90;;;;;;5027012;28;20179;-72
2022/02/19 04:29:25;;;;;;;0.70;0.50;;;6.50;99.90;;;;;;5035596;28;20498;-71
2022/02/19 04:31:55;;;;;;;0.70;0.50;;;6.50;99.90;;;;;;5035415;28;20223;-71
2022/02/19 04:34:23;;;;;;;0.70;0.50;;;6.50;99.90;;;;;;5018005;28;20570;-71
2022/02/19 04:36:50;;;;;;;0.70;0.50;;;6.50;99.90;;;;;;5015561;28;20490;-71
2022/02/19 04:39:17;;;;;;;0.70;0.50;;;6.50;99.90;;;;;;5023725;28;20465;-73
2022/02/19 04:41:42;;;;;;;1.10;1.00;;;6.40;99.90;;;;;;5038304;28;20426;-73
2022/02/19 04:44:08;;;;;;;0.70;0.50;;;6.40;99.90;;;;;;5038474;28;20452;-73
2022/02/19 04:46:33;;;;;;;0.70;0.50;;;6.40;99.90;;;;;;5037004;28;20175;-72
2022/02/19 04:48:59;;;;;;;0.70;0.50;;;6.40;99.90;;;;;;5035188;28;20172;-72
2022/02/19 04:51:24;;;;;;;0.70;0.50;;;6.30;99.90;;;;;;5017205;28;20192;-71
2022/02/19 04:53:50;;;;;;;0.70;0.50;;;6.30;99.90;;;;;;5030393;28;20191;-73
2022/02/19 04:56:15;;;;;;;0.70;0.50;;;6.30;99.90;;;;;;5038859;28;20176;-73
2022/02/19 04:58:41;;;;;;;0.70;0.50;;;6.20;99.90;;;;;;5036514;28;20195;-73
2022/02/19 05:01:06;;;;;;;0.70;0.50;;;6.10;99.90;;;;;;5042895;28;20670;-73
2022/02/19 05:03:32;;;;;;;0.70;0.50;;;6.10;99.90;;;;;;5041773;28;20175;-73
2022/02/19 05:05:58;;;;;;;0.70;0.50;;;6.00;99.90;;;;;;5037574;28;20221;-73
2022/02/19 05:08:23;;;;;;;0.70;0.50;;;5.90;99.90;;;;;;5019329;28;20234;-73
2022/02/19 05:10:49;;;;;;;0.70;0.50;;;5.90;99.90;;;;;;5050119;28;20203;-72
2022/02/19 05:13:14;;;;;;;0.70;0.50;;;5.80;99.90;;;;;;5033376;28;20195;-72
2022/02/19 05:15:40;;;;;;;0.70;0.57;;;5.80;99.90;;;;;;5031973;28;20175;-72
2022/02/19 05:18:06;;;;;;;1.07;0.97;;;5.70;99.90;;;;;;5036751;28;20179;-72
2022/02/19 05:20:31;;;;;;;0.70;0.50;;;5.70;99.90;;;;;;5038858;28;20256;-73
2022/02/19 05:22:57;;;;;;;0.70;0.50;;;5.70;99.90;;;;;;5036915;28;20164;-73
2022/02/19 05:25:23;;;;;;;0.70;0.50;;;5.60;99.90;;;;;;5036069;28;20586;-73
2022/02/19 05:27:49;;;;;;;0.70;0.50;;;5.60;99.90;;;;;;5037358;28;20167;-73
2022/02/19 05:30:14;;;;;;;0.70;0.50;;;5.50;99.90;;;;;;5037300;28;20450;-74
2022/02/19 05:32:40;;;;;;;0.70;0.50;;;5.40;99.90;;;;;;5037374;28;20179;-73
2022/02/19 05:35:06;;;;;;;0.70;0.50;;;5.40;99.90;;;;;;5027284;28;20176;-73
2022/02/19 05:37:32;;;;;;;0.70;0.50;;;5.30;99.90;;;;;;5018167;28;20534;-73
2022/02/19 05:39:58;;;;;;;0.70;0.40;;;5.30;99.90;;;;;;5023211;28;20484;-72
2022/02/19 05:42:25;;;;;;;0.70;0.50;;;5.30;99.90;;;;;;5032548;28;20496;-72
2022/02/19 05:44:51;;;;;;;0.70;0.40;;;5.30;99.90;;;;;;5040782;28;20434;-71
2022/02/19 05:47:18;;;;;;;0.70;0.43;;;5.20;99.90;;;;;;5034094;28;20476;-72
2022/02/19 05:49:45;;;;;;;0.70;0.50;;;5.20;99.90;;;;;;5034630;28;20477;-73
2022/02/19 05:52:10;;;;;;;0.70;0.50;;;5.20;99.90;;;;;;5038329;28;20508;-72
2022/02/19 05:54:36;;;;;;;0.70;0.50;;;5.10;99.90;;;;;;5033294;28;20461;-73
2022/02/19 05:57:01;;;;;;;0.70;0.50;;;5.10;99.90;;;;;;5034793;28;20515;-72
2022/02/19 05:59:27;;;;;;;0.70;0.50;;;5.10;99.90;;;;;;5041304;28;20199;-72
2022/02/19 06:01:52;;;;;;;0.70;0.50;;;5.10;99.90;;;;;;5035078;28;20199;-72
2022/02/19 06:04:18;;;;;;;0.70;0.50;;;5.00;99.90;;;;;;5031381;28;20228;-71
2022/02/19 06:06:44;;;;;;;0.70;0.50;;;5.00;99.90;;;;;;5042171;28;20183;-71
2022/02/19 06:09:09;;;;;;;0.70;0.50;;;5.00;99.90;;;;;;5032822;28;20172;-72
2022/02/19 06:11:35;;;;;;;0.70;0.40;;;5.00;99.90;;;;;;5036292;28;20255;-72
2022/02/19 06:14:00;;;;;;;0.70;0.50;;;5.00;99.90;;;;;;5035119;28;20183;-72
2022/02/19 06:16:26;;;;;;;0.70;0.50;;;5.00;99.90;;;;;;5029767;28;20258;-72
2022/02/19 06:18:51;;;;;;;0.70;0.43;;;5.00;99.90;;;;;;5038378;28;20656;-72
2022/02/19 06:21:17;;;;;;;0.70;0.50;;;5.00;99.90;;;;;;5042073;28;20199;-72
2022/02/19 06:23:43;;;;;;;0.70;0.50;;;5.00;99.90;;;;;;5034100;28;20545;-71
2022/02/19 06:26:08;;;;;;;0.70;0.50;;;5.00;99.90;;;;;;5033120;28;20190;-72
2022/02/19 06:28:34;;;;;;;0.70;0.50;;;5.00;99.90;;;;;;5030460;28;20174;-71
2022/02/19 06:31:00;;;;;;;0.70;0.50;;;5.00;99.90;;;;;;5029277;28;20199;-72
2022/02/19 06:33:25;;;;;;;1.93;0.70;;;5.00;99.90;;;;;;5031873;28;20167;-73
2022/02/19 06:35:51;;;;;;;0.70;0.50;;;5.00;99.90;;;;;;5032221;28;20171;-71
2022/02/19 06:38:17;;;;;;;0.70;0.50;;;5.00;99.90;;;;;;5018055;28;20230;-72
2022/02/19 06:40:42;;;;;;;0.80;0.57;;;5.00;99.90;;;;;;5033020;28;20932;-72
2022/02/19 06:43:08;;;;;;;0.70;0.50;;;5.00;99.90;;;;;;5033001;28;20569;-71
2022/02/19 06:45:34;;;;;;;0.70;0.60;;;5.00;99.90;;;;;;5031076;28;20172;-71
2022/02/19 06:47:59;;;;;;;0.70;0.40;;;5.00;99.90;;;;;;5028718;28;20164;-72
2022/02/19 06:50:26;;;;;;;0.70;0.50;;;5.10;99.90;;;;;;5026054;28;20282;-73
2022/02/19 06:52:51;;;;;;;0.70;0.40;;;5.10;99.90;;;;;;5024206;28;20183;-72
2022/02/19 06:55:17;;;;;;;0.70;0.50;;;5.10;99.90;;;;;;5032154;28;20440;-73
2022/02/19 06:57:46;;;;;;;0.70;0.50;;;5.10;99.90;;;;;;5034467;28;20861;-73
2022/02/19 07:00:12;;;;;;;0.70;0.50;;;5.10;99.90;;;;;;5032646;28;20194;-72
2022/02/19 07:02:38;;;;;;;0.70;0.50;;;5.10;99.90;;;;;;5036632;28;20418;-72
2022/02/19 07:05:04;;;;;;;0.70;0.50;;;5.20;99.90;;;;;;5031132;28;20429;-72
2022/02/19 07:07:30;;;;;;;0.70;0.50;;;5.20;99.90;;;;;;5034543;28;20195;-72
2022/02/19 07:09:56;;;;;;;0.70;0.50;;;5.20;99.90;;;;;;5035369;28;20422;-73
2022/02/19 07:12:21;;;;;;;0.70;0.47;;;5.30;99.90;;;;;;5033139;28;20196;-73
2022/02/19 07:14:47;;;;;;;0.70;0.50;;;5.30;99.90;;;;;;5032361;28;20176;-73
2022/02/19 07:17:13;;;;;;;0.70;0.40;;;5.40;99.90;;;;;;5035061;28;20271;-73
2022/02/19 07:19:38;;;;;;;0.70;0.50;;;5.40;99.90;;;;;;5032421;28;20191;-73
2022/02/19 07:22:04;;;;;;;0.70;0.50;;;5.50;99.90;;;;;;5032588;28;20501;-72
2022/02/19 07:24:30;;;;;;;0.70;0.50;;;5.50;99.90;;;;;;5051460;28;20248;-72
2022/02/19 07:26:56;;;;;;;0.70;0.50;;;5.50;99.90;;;;;;5051807;28;20508;-72
2022/02/19 07:29:23;;;;;;;1.53;1.43;;;5.60;99.90;;;;;;5046115;28;20424;-72
2022/02/19 07:31:49;;;;;;;0.70;0.50;;;5.70;99.90;;;;;;5032057;28;20847;-72
2022/02/19 07:34:15;;;;;;;0.70;0.50;;;5.70;99.90;;;;;;5038876;28;20433;-71
2022/02/19 07:36:41;;;;;;;0.70;0.50;;;5.80;99.90;;;;;;5035842;28;20410;-71
2022/02/19 07:39:09;;;;;;;0.80;0.73;;;5.90;99.90;;;;;;5033123;28;20962;-71
2022/02/19 07:41:35;;;;;;;0.70;0.40;;;5.90;99.90;;;;;;5040887;28;20445;-72
2022/02/19 07:44:01;;;;;;;0.70;0.50;;;6.00;99.90;;;;;;5051926;28;20887;-72
2022/02/19 07:46:27;;;;;;;0.70;0.40;;;6.00;99.90;;;;;;5048817;28;20424;-73
2022/02/19 07:48:52;;;;;;;0.70;0.50;;;6.10;99.90;;;;;;5045959;28;20442;-73
2022/02/19 07:59:30;;;;;;;0.70;0.50;;;6.40;99.90;;;;;;5033526;28;20508;-73
2022/02/19 08:01:56;;;;;;;0.70;0.50;;;6.60;99.90;;;;;;5037250;28;20465;-72
2022/02/19 08:04:21;;;;;;;0.70;0.50;;;6.70;99.90;;;;;;5050133;28;20536;-72
2022/02/19 08:06:47;;;;;;;0.70;0.47;;;6.90;99.90;;;;;;5051534;28;20163;-71
2022/02/19 08:09:13;;;;;;;0.70;0.50;;;7.00;99.90;;;;;;5049234;28;20300;-72
2022/02/19 08:11:39;;;;;;;0.70;0.50;;;7.30;99.90;;;;;;5051717;28;20270;-72
2022/02/19 08:14:06;;;;;;;0.70;0.50;;;7.60;99.90;;;;;;5051617;28;20906;-72
2022/02/19 08:16:31;;;;;;;0.70;0.50;;;8.40;99.90;;;;;;5043060;28;20467;-71
2022/02/19 08:18:58;;;;;;;0.73;0.67;;;9.20;99.90;;;;;;5049848;28;20532;-72
2022/02/19 08:21:24;;;;;;;0.70;0.50;;;9.90;99.90;;;;;;5048345;28;20183;-72
2022/02/19 08:23:51;;;;;;;0.70;0.60;;;10.60;99.90;;;;;;5040104;28;20448;-72
2022/02/19 08:26:23;;;;;;;0.73;0.60;;;11.30;99.90;;;;;;5050118;28;20431;-72
2022/02/19 08:28:49;;;;;;;0.70;0.50;;;11.80;97.20;;;;;;5051556;28;20497;-69
2022/02/19 08:31:14;;;;;;;0.70;0.50;;;12.40;95.10;;;;;;5040163;28;20882;-72
2022/02/19 08:33:40;;;;;;;4.87;0.80;;;12.90;92.60;;;;;;5034058;28;22073;-72
2022/02/19 08:36:06;;;;;;;0.70;0.50;;;13.60;90.80;;;;;;5031307;28;20226;-72
2022/02/19 08:38:32;;;;;;;0.80;0.70;;;14.10;81.90;;;;;;5032623;28;20198;-72
2022/02/19 08:40:57;;;;;;;0.80;0.60;;;14.60;77.20;;;;;;5032547;28;20438;-70
2022/02/19 08:43:23;;;;;;;1.90;0.80;;;15.10;76.40;;;;;;5020390;28;20167;-70
2022/02/19 08:45:49;;;;;;;0.70;0.60;;;15.60;73.50;;;;;;5038190;28;20187;-69
2022/02/19 08:48:14;;;;;;;4.03;0.70;;;16.30;69.40;;;;;;5045700;28;20297;-70
2022/02/19 08:50:40;;;;;;;0.80;0.50;;;16.70;64.20;;;;;;5031409;28;20190;-70
2022/02/19 08:53:06;;;;;;;0.70;0.50;;;16.80;62.60;;;;;;5045545;28;20206;-69
2022/02/19 08:55:32;;;;;;;2.10;1.70;;;17.10;60.60;;;;;;5053063;28;20472;-72
2022/02/19 08:57:58;;;;;;;0.70;0.60;;;17.50;59.60;;;;;;5054895;28;20870;-70
2022/02/19 09:00:24;;;;;;;1.93;0.80;;;18.00;58.00;;;;;;5053138;28;20210;-70
2022/02/19 09:02:49;;;;;;;4.03;1.07;;;18.30;56.50;;;;;;5042153;28;20794;-70
2022/02/19 09:05:17;;;;;;;2.60;2.50;;;18.70;55.70;;;;;;5033467;28;20167;-70
2022/02/19 09:07:43;;;;;;;0.77;0.60;;;19.00;54.10;;;;;;5034896;28;20222;-70
2022/02/19 09:10:10;;;;;;;0.90;0.80;;;19.20;52.90;;;;;;5040195;28;20962;-70
2022/02/19 09:12:37;;;;;;;0.73;0.60;;;19.60;52.20;;;;;;5052671;28;20417;-70
2022/02/19 09:15:04;;;;;;;1.40;0.77;;;19.70;51.20;;;;;;5054082;28;20523;-70
2022/02/19 09:17:30;;;;;;;0.80;0.70;;;19.80;51.40;;;;;;5054027;28;20475;-70
2022/02/19 09:19:55;;;;;;;0.80;0.80;;;20.20;50.80;;;;;;5052829;28;20453;-70
2022/02/19 09:22:21;;;;;;;1.03;0.60;;;20.30;50.60;;;;;;5052751;28;20183;-70
2022/02/19 09:24:46;;;;;;;5.97;2.00;;;20.40;49.90;;;;;;5053530;28;20162;-70
2022/02/19 09:27:12;;;;;;;0.77;0.57;;;20.80;49.80;;;;;;5033828;28;20225;-70
2022/02/19 09:29:38;;;;;;;0.80;0.60;;;21.00;49.20;;;;;;5035131;28;20171;-70
2022/02/19 09:32:04;;;;;;;0.80;0.70;;;21.50;48.00;;;;;;5036287;28;20195;-70
2022/02/19 09:34:29;;;;;;;0.80;0.50;;;21.80;47.30;;;;;;5033966;28;20178;-70
2022/02/19 09:36:55;;;;;;;1.83;0.90;;;21.80;46.40;;;;;;5044695;28;20430;-70
2022/02/19 09:39:20;;;;;;;0.80;0.60;;;22.00;46.20;;;;;;5049452;28;20196;-70
2022/02/19 09:41:48;;;;;;;0.80;0.60;;;21.90;44.60;;;;;;5036247;28;20188;-70
2022/02/19 09:44:14;;;;;;;0.80;0.70;;;21.70;44.80;;;;;;5034311;28;20172;-70
2022/02/19 09:46:40;;;;;;;1.33;1.23;;;21.90;45.10;;;;;;5042824;28;20645;-70
2022/02/19 09:49:07;;;;;;;1.17;1.07;;;22.20;45.50;;;;;;5037184;28;20545;-70
2022/02/19 09:51:34;;;;;;;0.80;0.70;;;22.40;44.00;;;;;;5034057;28;20448;-71
2022/02/19 09:53:59;;;;;;;1.33;0.80;;;22.20;43.60;;;;;;5042601;28;20432;-70
2022/02/19 09:56:28;;;;;;;2.77;2.20;;;22.00;43.30;;;;;;5044766;28;20422;-70
2022/02/19 09:58:54;;;;;;;0.80;0.50;;;21.70;43.30;;;;;;5033811;28;20192;-70
2022/02/19 10:01:21;;;;;;;2.30;0.97;;;21.60;43.70;;;;;;5034396;28;20453;-70
2022/02/19 10:03:53;;;;;;;0.70;0.50;;;21.50;43.30;;;;;;5018552;28;20418;-70
2022/02/19 10:06:19;;;;;;;2.40;1.17;;;21.60;43.30;;;;;;5013880;28;20419;-70
2022/02/19 10:08:45;;;;;;;0.70;0.50;;;21.90;43.40;;;;;;5021308;28;20845;-70
2022/02/19 10:11:14;;;;;;;0.80;0.50;;;22.20;42.80;;;;;;5033601;28;20183;-70
2022/02/19 10:13:41;;;;;;;3.17;0.60;;;22.30;42.50;;;;;;5034853;28;20425;-70
2022/02/19 10:16:09;;;;;;;0.90;0.90;;;22.10;42.50;;;;;;5035907;28;20432;-70
2022/02/19 10:18:37;;;;;;;0.70;0.50;;;21.80;43.20;;;;;;5040520;28;20479;-70
2022/02/19 10:21:20;;;;;;;0.70;0.50;;;22.00;43.90;;;;;;5043026;28;20437;-69
2022/02/19 10:23:55;;;;;;;1.10;1.00;;;22.70;43.40;;;;;;5053277;28;20409;-70
2022/02/19 10:26:25;;;;;;;1.27;0.90;;;23.10;42.80;;;;;;5031567;28;20424;-70
2022/02/19 10:29:17;;;;;;;0.90;0.70;;;23.20;43.20;;;;;;5051616;28;20977;-70
2022/02/19 10:31:55;;;;;;;0.80;0.50;;;23.70;41.20;;;;;;5032630;28;20446;-69
2022/02/19 10:34:21;;;;;;;2.50;0.60;;;23.90;40.60;;;;;;5033299;28;20402;-70
2022/02/19 10:36:51;;;;;;;2.10;0.70;;;23.90;40.50;;;;;;5043589;28;20425;-69
2022/02/19 10:39:27;;;;;;;0.90;0.70;;;23.80;39.40;;;;;;5039023;28;20191;-70
2022/02/19 10:41:55;;;;;;;1.23;1.00;;;23.80;39.70;;;;;;5033031;28;20945;-69
2022/02/19 10:44:27;;;;;;;0.80;0.50;;;24.10;39.50;;;;;;5034134;28;20450;-69
2022/02/19 10:46:55;;;;;;;0.80;0.50;;;24.30;39.20;;;;;;5043932;28;20567;-69
2022/02/19 10:49:23;;;;;;;0.90;0.50;;;24.40;39.60;;;;;;5047605;28;20421;-70
2022/02/19 10:51:48;;;;;;;2.87;0.60;;;24.60;39.10;;;;;;5038540;28;20976;-69
2022/02/19 10:54:19;;;;;;;0.80;0.67;;;25.00;38.70;;;;;;5052327;28;20433;-70
2022/02/19 10:56:45;;;;;;;1.97;0.70;;;25.10;38.00;;;;;;5052572;28;20494;-69
2022/02/19 10:59:18;;;;;;;0.90;0.70;;;25.60;38.60;;;;;;5049467;28;20488;-70
2022/02/19 11:01:50;;;;;;;1.67;0.83;;;26.00;37.50;;;;;;5032587;28;20217;-69
2022/02/19 11:04:18;;;;;;;1.77;1.67;;;26.00;36.20;;;;;;5043084;28;20421;-70
2022/02/19 11:06:44;;;;;;;0.80;0.60;;;25.80;37.00;;;;;;5034553;28;20430;-69
2022/02/19 11:09:12;;;;;;;1.07;0.60;;;25.30;36.00;;;;;;5032573;28;20417;-69
2022/02/19 11:11:39;;;;;;;2.13;2.03;;;25.30;36.60;;;;;;5033543;28;20441;-69
2022/02/19 11:14:13;;;;;;;1.13;1.00;;;25.80;37.00;;;;;;5032511;28;20820;-69
2022/02/19 11:16:39;;;;;;;0.93;0.83;;;26.40;37.40;;;;;;5031970;28;20785;-70
2022/02/19 11:19:05;;;;;;;0.80;0.57;;;27.20;35.60;;;;;;5048792;28;20457;-69
2022/02/19 11:21:32;;;;;;;1.30;0.90;;;27.40;34.40;;;;;;5043830;28;20228;-69
2022/02/19 11:24:00;;;;;;;1.43;0.90;;;27.60;33.60;;;;;;5033361;28;20403;-69
2022/02/19 11:26:26;;;;;;;0.97;0.77;;;27.80;33.70;;;;;;5051753;28;20823;-69
2022/02/19 11:28:58;;;;;;;0.80;0.60;;;27.90;33.70;;;;;;5035865;28;20469;-69
2022/02/19 11:31:28;;;;;;;0.97;0.87;;;28.00;34.10;;;;;;5034589;28;20203;-69
2022/02/19 11:33:59;;;;;;;0.90;0.70;;;27.60;32.30;;;;;;5042086;28;20457;-70
2022/02/19 11:36:26;;;;;;;0.80;0.50;;;27.50;34.10;;;;;;5047193;28;20422;-70
2022/02/19 11:38:53;;;;;;;0.80;0.60;;;27.20;33.00;;;;;;5034524;28;21003;-70
2022/02/19 11:41:32;;;;;;;0.83;0.60;;;26.30;32.50;;;;;;5032286;28;20457;-70
2022/02/19 11:43:57;;;;;;;0.80;0.50;;;25.40;33.70;;;;;;5031971;28;20413;-70
2022/02/19 11:46:23;;;;;;;0.80;0.50;;;24.90;34.70;;;;;;5042980;28;20942;-69
2022/02/19 11:48:50;;;;;;;0.80;0.50;;;25.20;35.30;;;;;;5051383;28;20183;-69
2022/02/19 11:51:22;;;;;;;4.40;0.80;;;25.90;34.80;;;;;;5051864;28;20687;-69
2022/02/19 11:53:53;;;;;;;0.80;0.60;;;25.90;33.50;;;;;;5051764;28;20425;-69
2022/02/19 11:56:36;;;;;;;0.90;0.67;;;25.80;34.40;;;;;;5042640;28;20791;-69
2022/02/19 11:59:05;;;;;;;0.73;0.50;;;25.80;33.50;;;;;;5031399;28;20472;-69
2022/02/19 12:01:32;;;;;;;0.80;0.50;;;26.20;33.80;;;;;;5040797;28;20532;-70
2022/02/19 12:04:10;;;;;;;0.90;0.70;;;26.20;33.70;;;;;;5050105;28;20433;-69
2022/02/19 12:06:38;;;;;;;0.80;0.50;;;26.00;34.10;;;;;;5042771;28;20432;-69
2022/02/19 12:09:05;;;;;;;0.80;0.50;;;26.40;34.10;;;;;;5031681;28;20426;-70
2022/02/19 12:11:31;;;;;;;0.80;0.60;;;26.80;33.80;;;;;;5040194;28;20548;-70
2022/02/19 12:14:00;;;;;;;1.23;1.10;;;27.60;34.80;;;;;;5051456;28;20437;-69
2022/02/19 12:16:31;;;;;;;0.90;0.67;;;26.90;32.70;;;;;;5034006;28;20434;-69
2022/02/19 12:18:57;;;;;;;0.80;0.70;;;26.40;33.60;;;;;;5033226;28;20458;-69
2022/02/19 12:21:42;;;;;;;1.50;1.30;;;26.30;34.20;;;;;;5038506;28;20448;-69
2022/02/19 12:24:22;;;;;;;0.80;0.60;;;25.80;33.80;;;;;;5036947;28;20418;-69
2022/02/19 12:27:00;;;;;;;0.80;0.60;;;26.00;34.70;;;;;;5032359;28;20426;-70
2022/02/19 12:29:30;;;;;;;1.40;0.60;;;26.70;35.00;;;;;;5035621;28;20842;-69
2022/02/19 12:32:14;;;;;;;1.73;1.60;;;27.20;34.60;;;;;;5035912;28;20471;-69
2022/02/19 12:34:47;;;;;;;0.80;0.50;;;27.50;33.80;;;;;;5035545;28;20405;-69
2022/02/19 12:37:13;;;;;;;0.80;0.60;;;27.90;33.30;;;;;;5036165;28;20437;-69
2022/02/19 12:39:42;;;;;;;1.63;1.53;;;28.20;33.30;;;;;;5035359;28;20465;-69
2022/02/19 12:42:15;;;;;;;0.80;0.50;;;28.30;32.90;;;;;;5035752;28;20549;-70
2022/02/19 12:44:41;;;;;;;0.80;0.60;;;28.30;32.80;;;;;;5053711;28;20444;-70
2022/02/19 12:47:08;;;;;;;1.97;0.70;;;28.70;32.90;;;;;;5046006;28;20425;-70
2022/02/19 12:49:34;;;;;;;0.80;0.70;;;29.10;33.40;;;;;;5037503;28;20175;-70
2022/02/19 12:52:02;;;;;;;0.80;0.50;;;29.40;32.40;;;;;;5054341;28;20538;-71
2022/02/19 12:54:43;;;;;;;0.80;0.60;;;29.10;32.00;;;;;;5054920;28;20930;-70
2022/02/19 12:57:11;;;;;;;5.80;0.77;;;29.40;32.40;;;;;;5042026;28;20444;-70
2022/02/19 12:59:38;;;;;;;0.80;0.50;;;29.40;31.00;;;;;;5038986;28;20469;-70